sensor_id;sensor_type;location;lat;lon;timestamp;P1;durP1;ratioP1;P2;durP2;ratioP2
63218;SDS011;49320;52.512;13.448;2023-04-24T00:01:20;3.70;;;2.95;;
63218;SDS011;49320;52.512;13.448;2023-04-24T00:03:47;3.70;;;2.83;;
63218;SDS011;49320;52.512;13.448;2023-04-24T00:06:14;3.55;;;3.05;;
63218;SDS011;49320;52.512;13.448;2023-04-24T00:08:43;4.05;;;3.15;;
63218;SDS011;49320;52.512;13.448;2023-04-24T00:11:09;3.97;;;3.35;;
63218;SDS011;49320;52.512;13.448;2023-04-24T00:13:37;5.15;;;3.10;;
63218;SDS011;49320;52.512;13.448;2023-04-24T00:16:04;4.43;;;3.10;;
63218;SDS011;49320;52.512;13.448;2023-04-24T00:18:31;3.15;;;2.83;;
63218;SDS011;49320;52.512;13.448;2023-04-24T00:20:58;3.63;;;3.03;;
63218;SDS011;49320;52.512;13.448;2023-04-24T00:23:26;4.70;;;3.47;;
63218;SDS011;49320;52.512;13.448;2023-04-24T00:25:52;3.53;;;3.20;;
63218;SDS011;49320;52.512;13.448;2023-04-24T00:28:19;3.70;;;3.10;;
63218;SDS011;49320;52.512;13.448;2023-04-24T00:30:46;2.97;;;2.67;;
63218;SDS011;49320;52.512;13.448;2023-04-24T00:33:13;5.72;;;2.92;;
63218;SDS011;49320;52.512;13.448;2023-04-24T00:35:40;3.47;;;3.17;;
63218;SDS011;49320;52.512;13.448;2023-04-24T00:38:07;3.13;;;2.65;;
63218;SDS011;49320;52.512;13.448;2023-04-24T00:40:34;2.92;;;2.63;;
63218;SDS011;49320;52.512;13.448;2023-04-24T00:43:01;3.92;;;2.80;;
63218;SDS011;49320;52.512;13.448;2023-04-24T00:45:27;3.15;;;2.70;;
63218;SDS011;49320;52.512;13.448;2023-04-24T00:47:54;3.80;;;3.03;;
63218;SDS011;49320;52.512;13.448;2023-04-24T00:50:23;3.30;;;2.90;;
63218;SDS011;49320;52.512;13.448;2023-04-24T00:52:51;4.18;;;3.15;;
63218;SDS011;49320;52.512;13.448;2023-04-24T00:55:18;4.00;;;2.97;;
63218;SDS011;49320;52.512;13.448;2023-04-24T00:57:45;3.42;;;2.95;;
63218;SDS011;49320;52.512;13.448;2023-04-24T01:00:15;2.92;;;2.63;;
63218;SDS011;49320;52.512;13.448;2023-04-24T01:02:43;3.00;;;2.70;;
63218;SDS011;49320;52.512;13.448;2023-04-24T01:05:15;3.65;;;3.28;;
63218;SDS011;49320;52.512;13.448;2023-04-24T01:07:43;3.25;;;2.95;;
63218;SDS011;49320;52.512;13.448;2023-04-24T01:10:14;3.83;;;3.05;;
63218;SDS011;49320;52.512;13.448;2023-04-24T01:12:43;3.58;;;3.13;;
63218;SDS011;49320;52.512;13.448;2023-04-24T01:15:10;3.38;;;2.85;;
63218;SDS011;49320;52.512;13.448;2023-04-24T01:17:37;3.38;;;3.08;;
63218;SDS011;49320;52.512;13.448;2023-04-24T01:20:05;4.00;;;2.83;;
63218;SDS011;49320;52.512;13.448;2023-04-24T01:22:33;4.38;;;2.75;;
63218;SDS011;49320;52.512;13.448;2023-04-24T01:25:01;6.32;;;3.20;;
63218;SDS011;49320;52.512;13.448;2023-04-24T01:27:29;3.80;;;3.38;;
63218;SDS011;49320;52.512;13.448;2023-04-24T01:29:56;3.90;;;3.50;;
63218;SDS011;49320;52.512;13.448;2023-04-24T01:32:23;3.95;;;2.83;;
63218;SDS011;49320;52.512;13.448;2023-04-24T01:34:51;3.42;;;3.13;;
63218;SDS011;49320;52.512;13.448;2023-04-24T01:37:19;3.42;;;2.88;;
63218;SDS011;49320;52.512;13.448;2023-04-24T01:39:45;3.42;;;2.92;;
63218;SDS011;49320;52.512;13.448;2023-04-24T01:42:12;2.97;;;2.67;;
63218;SDS011;49320;52.512;13.448;2023-04-24T01:44:40;5.90;;;3.03;;
63218;SDS011;49320;52.512;13.448;2023-04-24T01:47:08;6.25;;;2.92;;
63218;SDS011;49320;52.512;13.448;2023-04-24T01:49:35;3.55;;;3.13;;
63218;SDS011;49320;52.512;13.448;2023-04-24T01:52:04;3.95;;;3.10;;
63218;SDS011;49320;52.512;13.448;2023-04-24T01:54:32;2.80;;;2.60;;
63218;SDS011;49320;52.512;13.448;2023-04-24T01:56:59;4.70;;;3.35;;
63218;SDS011;49320;52.512;13.448;2023-04-24T01:59:28;4.32;;;3.20;;
63218;SDS011;49320;52.512;13.448;2023-04-24T02:01:56;4.70;;;3.15;;
63218;SDS011;49320;52.512;13.448;2023-04-24T02:04:23;3.20;;;2.90;;
63218;SDS011;49320;52.512;13.448;2023-04-24T02:06:49;5.00;;;3.60;;
63218;SDS011;49320;52.512;13.448;2023-04-24T02:09:16;4.28;;;3.72;;
63218;SDS011;49320;52.512;13.448;2023-04-24T02:11:43;3.42;;;3.03;;
63218;SDS011;49320;52.512;13.448;2023-04-24T02:14:10;4.45;;;3.10;;
63218;SDS011;49320;52.512;13.448;2023-04-24T02:16:37;4.15;;;3.67;;
63218;SDS011;49320;52.512;13.448;2023-04-24T02:19:03;3.95;;;3.38;;
63218;SDS011;49320;52.512;13.448;2023-04-24T02:21:30;4.03;;;3.60;;
63218;SDS011;49320;52.512;13.448;2023-04-24T02:23:57;5.32;;;3.50;;
63218;SDS011;49320;52.512;13.448;2023-04-24T02:26:24;3.28;;;2.85;;
63218;SDS011;49320;52.512;13.448;2023-04-24T02:28:51;3.97;;;3.38;;
63218;SDS011;49320;52.512;13.448;2023-04-24T02:31:18;3.83;;;3.15;;
63218;SDS011;49320;52.512;13.448;2023-04-24T02:33:45;3.70;;;3.30;;
63218;SDS011;49320;52.512;13.448;2023-04-24T02:36:11;3.55;;;3.22;;
63218;SDS011;49320;52.512;13.448;2023-04-24T02:38:39;5.90;;;3.58;;
63218;SDS011;49320;52.512;13.448;2023-04-24T02:41:06;4.20;;;3.50;;
63218;SDS011;49320;52.512;13.448;2023-04-24T02:43:33;3.90;;;3.60;;
63218;SDS011;49320;52.512;13.448;2023-04-24T02:46:00;4.28;;;3.45;;
63218;SDS011;49320;52.512;13.448;2023-04-24T02:48:27;4.30;;;3.90;;
63218;SDS011;49320;52.512;13.448;2023-04-24T02:50:54;3.83;;;3.53;;
63218;SDS011;49320;52.512;13.448;2023-04-24T02:53:21;4.10;;;3.40;;
63218;SDS011;49320;52.512;13.448;2023-04-24T02:55:48;4.68;;;3.83;;
63218;SDS011;49320;52.512;13.448;2023-04-24T02:58:15;3.83;;;3.40;;
63218;SDS011;49320;52.512;13.448;2023-04-24T03:00:43;4.15;;;3.67;;
63218;SDS011;49320;52.512;13.448;2023-04-24T03:03:10;4.78;;;3.72;;
63218;SDS011;49320;52.512;13.448;2023-04-24T03:05:37;4.53;;;3.20;;
63218;SDS011;49320;52.512;13.448;2023-04-24T03:08:03;3.22;;;2.92;;
63218;SDS011;49320;52.512;13.448;2023-04-24T03:10:31;3.85;;;3.45;;
63218;SDS011;49320;52.512;13.448;2023-04-24T03:12:58;3.90;;;3.50;;
63218;SDS011;49320;52.512;13.448;2023-04-24T03:15:25;3.88;;;3.25;;
63218;SDS011;49320;52.512;13.448;2023-04-24T03:17:52;3.95;;;3.55;;
63218;SDS011;49320;52.512;13.448;2023-04-24T03:20:21;5.35;;;3.90;;
63218;SDS011;49320;52.512;13.448;2023-04-24T03:22:49;4.28;;;3.88;;
63218;SDS011;49320;52.512;13.448;2023-04-24T03:25:15;4.85;;;4.35;;
63218;SDS011;49320;52.512;13.448;2023-04-24T03:27:42;4.75;;;4.13;;
63218;SDS011;49320;52.512;13.448;2023-04-24T03:30:09;4.45;;;3.88;;
63218;SDS011;49320;52.512;13.448;2023-04-24T03:32:36;4.18;;;3.75;;
63218;SDS011;49320;52.512;13.448;2023-04-24T03:35:06;5.22;;;4.03;;
63218;SDS011;49320;52.512;13.448;2023-04-24T03:37:34;5.03;;;3.80;;
63218;SDS011;49320;52.512;13.448;2023-04-24T03:40:01;3.92;;;3.53;;
63218;SDS011;49320;52.512;13.448;2023-04-24T03:42:28;3.70;;;3.15;;
63218;SDS011;49320;52.512;13.448;2023-04-24T03:44:55;4.22;;;3.13;;
63218;SDS011;49320;52.512;13.448;2023-04-24T03:47:22;4.97;;;3.10;;
63218;SDS011;49320;52.512;13.448;2023-04-24T03:49:49;4.38;;;3.60;;
63218;SDS011;49320;52.512;13.448;2023-04-24T03:52:16;3.50;;;2.90;;
63218;SDS011;49320;52.512;13.448;2023-04-24T03:54:43;3.28;;;2.97;;
63218;SDS011;49320;52.512;13.448;2023-04-24T03:57:10;4.43;;;3.08;;
63218;SDS011;49320;52.512;13.448;2023-04-24T03:59:36;4.22;;;3.00;;
63218;SDS011;49320;52.512;13.448;2023-04-24T04:02:03;3.58;;;2.85;;
63218;SDS011;49320;52.512;13.448;2023-04-24T04:04:30;3.78;;;3.42;;
63218;SDS011;49320;52.512;13.448;2023-04-24T04:06:58;3.33;;;3.00;;
63218;SDS011;49320;52.512;13.448;2023-04-24T04:09:27;3.10;;;2.80;;
63218;SDS011;49320;52.512;13.448;2023-04-24T04:11:54;3.50;;;2.83;;
63218;SDS011;49320;52.512;13.448;2023-04-24T04:14:21;3.78;;;3.10;;
63218;SDS011;49320;52.512;13.448;2023-04-24T04:16:49;3.45;;;3.15;;
63218;SDS011;49320;52.512;13.448;2023-04-24T04:19:19;2.92;;;2.63;;
63218;SDS011;49320;52.512;13.448;2023-04-24T04:21:47;4.22;;;3.38;;
63218;SDS011;49320;52.512;13.448;2023-04-24T04:24:19;3.75;;;3.33;;
63218;SDS011;49320;52.512;13.448;2023-04-24T04:26:50;3.33;;;3.03;;
63218;SDS011;49320;52.512;13.448;2023-04-24T04:29:18;4.32;;;3.20;;
63218;SDS011;49320;52.512;13.448;2023-04-24T04:31:45;3.20;;;2.90;;
63218;SDS011;49320;52.512;13.448;2023-04-24T04:34:12;3.58;;;3.28;;
63218;SDS011;49320;52.512;13.448;2023-04-24T04:36:40;4.40;;;2.97;;
63218;SDS011;49320;52.512;13.448;2023-04-24T04:39:08;5.22;;;3.35;;
63218;SDS011;49320;52.512;13.448;2023-04-24T04:41:34;3.63;;;3.08;;
63218;SDS011;49320;52.512;13.448;2023-04-24T04:44:01;4.15;;;3.78;;
63218;SDS011;49320;52.512;13.448;2023-04-24T04:46:31;4.00;;;2.90;;
63218;SDS011;49320;52.512;13.448;2023-04-24T04:49:01;3.80;;;3.13;;
63218;SDS011;49320;52.512;13.448;2023-04-24T04:51:28;4.95;;;3.00;;
63218;SDS011;49320;52.512;13.448;2023-04-24T04:53:55;3.63;;;3.13;;
63218;SDS011;49320;52.512;13.448;2023-04-24T04:56:22;3.45;;;3.03;;
63218;SDS011;49320;52.512;13.448;2023-04-24T04:58:48;3.22;;;2.92;;
63218;SDS011;49320;52.512;13.448;2023-04-24T05:01:15;3.60;;;3.00;;
63218;SDS011;49320;52.512;13.448;2023-04-24T05:03:43;3.47;;;3.17;;
63218;SDS011;49320;52.512;13.448;2023-04-24T05:06:10;3.25;;;2.95;;
63218;SDS011;49320;52.512;13.448;2023-04-24T05:08:38;3.08;;;2.78;;
63218;SDS011;49320;52.512;13.448;2023-04-24T05:11:04;4.20;;;3.42;;
63218;SDS011;49320;52.512;13.448;2023-04-24T05:13:32;3.15;;;2.85;;
63218;SDS011;49320;52.512;13.448;2023-04-24T05:18:33;3.58;;;2.70;;
63218;SDS011;49320;52.512;13.448;2023-04-24T05:21:00;3.05;;;2.80;;
63218;SDS011;49320;52.512;13.448;2023-04-24T05:23:27;4.57;;;2.92;;
63218;SDS011;49320;52.512;13.448;2023-04-24T05:25:54;3.15;;;2.50;;
63218;SDS011;49320;52.512;13.448;2023-04-24T05:28:21;2.92;;;2.63;;
63218;SDS011;49320;52.512;13.448;2023-04-24T05:30:48;3.33;;;2.70;;
63218;SDS011;49320;52.512;13.448;2023-04-24T05:33:15;2.78;;;2.42;;
63218;SDS011;49320;52.512;13.448;2023-04-24T05:35:41;2.38;;;2.17;;
63218;SDS011;49320;52.512;13.448;2023-04-24T05:38:13;3.00;;;2.70;;
63218;SDS011;49320;52.512;13.448;2023-04-24T05:40:43;2.70;;;2.40;;
63218;SDS011;49320;52.512;13.448;2023-04-24T05:43:10;3.13;;;2.47;;
63218;SDS011;49320;52.512;13.448;2023-04-24T05:45:38;3.92;;;2.00;;
63218;SDS011;49320;52.512;13.448;2023-04-24T05:48:05;2.78;;;2.47;;
63218;SDS011;49320;52.512;13.448;2023-04-24T05:50:32;2.85;;;2.58;;
63218;SDS011;49320;52.512;13.448;2023-04-24T05:53:02;4.30;;;2.35;;
63218;SDS011;49320;52.512;13.448;2023-04-24T05:55:30;3.15;;;2.22;;
63218;SDS011;49320;52.512;13.448;2023-04-24T05:57:57;2.22;;;1.85;;
63218;SDS011;49320;52.512;13.448;2023-04-24T06:00:24;2.65;;;1.85;;
63218;SDS011;49320;52.512;13.448;2023-04-24T06:02:52;2.03;;;1.60;;
63218;SDS011;49320;52.512;13.448;2023-04-24T06:05:20;3.17;;;1.95;;
63218;SDS011;49320;52.512;13.448;2023-04-24T06:07:47;2.72;;;2.00;;
63218;SDS011;49320;52.512;13.448;2023-04-24T06:10:14;3.40;;;2.10;;
63218;SDS011;49320;52.512;13.448;2023-04-24T06:12:41;3.15;;;1.77;;
63218;SDS011;49320;52.512;13.448;2023-04-24T06:15:08;2.80;;;1.98;;
63218;SDS011;49320;52.512;13.448;2023-04-24T06:17:36;2.95;;;1.95;;
63218;SDS011;49320;52.512;13.448;2023-04-24T06:20:03;2.05;;;1.60;;
63218;SDS011;49320;52.512;13.448;2023-04-24T06:22:31;2.20;;;1.70;;
63218;SDS011;49320;52.512;13.448;2023-04-24T06:24:59;2.67;;;1.40;;
63218;SDS011;49320;52.512;13.448;2023-04-24T06:27:26;1.90;;;1.40;;
63218;SDS011;49320;52.512;13.448;2023-04-24T06:29:53;2.05;;;1.52;;
63218;SDS011;49320;52.512;13.448;2023-04-24T06:32:23;1.67;;;1.27;;
63218;SDS011;49320;52.512;13.448;2023-04-24T06:34:51;1.77;;;1.40;;
63218;SDS011;49320;52.512;13.448;2023-04-24T06:37:19;2.13;;;1.30;;
63218;SDS011;49320;52.512;13.448;2023-04-24T06:39:46;3.10;;;1.50;;
63218;SDS011;49320;52.512;13.448;2023-04-24T06:42:13;1.50;;;1.20;;
63218;SDS011;49320;52.512;13.448;2023-04-24T06:44:40;1.98;;;1.20;;
63218;SDS011;49320;52.512;13.448;2023-04-24T06:47:08;2.83;;;1.35;;
63218;SDS011;49320;52.512;13.448;2023-04-24T06:49:39;1.63;;;1.10;;
63218;SDS011;49320;52.512;13.448;2023-04-24T06:52:07;2.55;;;1.23;;
63218;SDS011;49320;52.512;13.448;2023-04-24T06:54:34;1.55;;;1.23;;
63218;SDS011;49320;52.512;13.448;2023-04-24T06:57:01;1.83;;;1.38;;
63218;SDS011;49320;52.512;13.448;2023-04-24T06:59:29;2.42;;;1.23;;
63218;SDS011;49320;52.512;13.448;2023-04-24T07:01:56;1.17;;;1.08;;
63218;SDS011;49320;52.512;13.448;2023-04-24T07:04:24;1.58;;;1.20;;
63218;SDS011;49320;52.512;13.448;2023-04-24T07:06:52;1.83;;;1.17;;
63218;SDS011;49320;52.512;13.448;2023-04-24T07:09:22;2.08;;;1.40;;
63218;SDS011;49320;52.512;13.448;2023-04-24T07:11:50;2.20;;;1.20;;
63218;SDS011;49320;52.512;13.448;2023-04-24T07:14:18;1.95;;;1.05;;
63218;SDS011;49320;52.512;13.448;2023-04-24T07:16:45;1.75;;;1.20;;
63218;SDS011;49320;52.512;13.448;2023-04-24T07:19:13;2.28;;;1.52;;
63218;SDS011;49320;52.512;13.448;2023-04-24T07:21:40;3.17;;;2.10;;
63218;SDS011;49320;52.512;13.448;2023-04-24T07:24:08;1.55;;;1.20;;
63218;SDS011;49320;52.512;13.448;2023-04-24T07:26:38;1.65;;;1.15;;
63218;SDS011;49320;52.512;13.448;2023-04-24T07:29:06;1.80;;;1.00;;
63218;SDS011;49320;52.512;13.448;2023-04-24T07:31:34;0.70;;;0.60;;
63218;SDS011;49320;52.512;13.448;2023-04-24T07:34:01;2.13;;;1.08;;
63218;SDS011;49320;52.512;13.448;2023-04-24T07:36:28;0.88;;;0.77;;
63218;SDS011;49320;52.512;13.448;2023-04-24T07:38:55;0.98;;;0.70;;
63218;SDS011;49320;52.512;13.448;2023-04-24T07:41:23;0.88;;;0.80;;
63218;SDS011;49320;52.512;13.448;2023-04-24T07:43:50;2.15;;;0.80;;
63218;SDS011;49320;52.512;13.448;2023-04-24T07:46:18;3.22;;;1.60;;
63218;SDS011;49320;52.512;13.448;2023-04-24T07:48:46;1.00;;;0.95;;
63218;SDS011;49320;52.512;13.448;2023-04-24T07:51:23;0.80;;;0.70;;
63218;SDS011;49320;52.512;13.448;2023-04-24T07:53:53;1.38;;;0.70;;
63218;SDS011;49320;52.512;13.448;2023-04-24T07:56:23;1.30;;;0.82;;
63218;SDS011;49320;52.512;13.448;2023-04-24T07:58:53;0.90;;;0.80;;
63218;SDS011;49320;52.512;13.448;2023-04-24T08:01:19;1.02;;;0.93;;
63218;SDS011;49320;52.512;13.448;2023-04-24T08:03:46;1.67;;;0.70;;
63218;SDS011;49320;52.512;13.448;2023-04-24T08:06:13;1.10;;;0.70;;
63218;SDS011;49320;52.512;13.448;2023-04-24T08:08:40;1.35;;;0.90;;
63218;SDS011;49320;52.512;13.448;2023-04-24T08:15:14;1.10;;;0.52;;
63218;SDS011;49320;52.512;13.448;2023-04-24T08:17:41;0.50;;;0.50;;
63218;SDS011;49320;52.512;13.448;2023-04-24T08:20:08;2.20;;;0.60;;
63218;SDS011;49320;52.512;13.448;2023-04-24T08:22:40;0.60;;;0.60;;
63218;SDS011;49320;52.512;13.448;2023-04-24T08:25:09;4.40;;;0.95;;
63218;SDS011;49320;52.512;13.448;2023-04-24T08:27:36;0.75;;;0.60;;
63218;SDS011;49320;52.512;13.448;2023-04-24T08:30:04;1.63;;;0.68;;
63218;SDS011;49320;52.512;13.448;2023-04-24T08:32:33;0.80;;;0.50;;
63218;SDS011;49320;52.512;13.448;2023-04-24T08:35:00;0.70;;;0.60;;
63218;SDS011;49320;52.512;13.448;2023-04-24T08:37:27;1.10;;;0.77;;
63218;SDS011;49320;52.512;13.448;2023-04-24T08:39:53;2.38;;;1.00;;
63218;SDS011;49320;52.512;13.448;2023-04-24T08:42:20;1.15;;;0.88;;
63218;SDS011;49320;52.512;13.448;2023-04-24T08:44:48;1.20;;;0.80;;
63218;SDS011;49320;52.512;13.448;2023-04-24T08:47:16;0.80;;;0.70;;
63218;SDS011;49320;52.512;13.448;2023-04-24T08:49:46;0.82;;;0.68;;
63218;SDS011;49320;52.512;13.448;2023-04-24T08:52:16;0.75;;;0.60;;
63218;SDS011;49320;52.512;13.448;2023-04-24T08:54:44;3.55;;;0.60;;
63218;SDS011;49320;52.512;13.448;2023-04-24T08:57:12;1.30;;;0.80;;
63218;SDS011;49320;52.512;13.448;2023-04-24T08:59:41;1.13;;;0.70;;
63218;SDS011;49320;52.512;13.448;2023-04-24T09:02:09;0.68;;;0.68;;
63218;SDS011;49320;52.512;13.448;2023-04-24T09:04:38;0.57;;;0.57;;
63218;SDS011;49320;52.512;13.448;2023-04-24T09:07:07;0.80;;;0.70;;
63218;SDS011;49320;52.512;13.448;2023-04-24T09:09:37;1.23;;;0.85;;
63218;SDS011;49320;52.512;13.448;2023-04-24T09:12:05;2.47;;;0.73;;
63218;SDS011;49320;52.512;13.448;2023-04-24T09:14:32;1.08;;;0.82;;
63218;SDS011;49320;52.512;13.448;2023-04-24T09:16:59;0.50;;;0.50;;
63218;SDS011;49320;52.512;13.448;2023-04-24T09:19:26;0.75;;;0.70;;
63218;SDS011;49320;52.512;13.448;2023-04-24T09:21:53;3.03;;;0.80;;
63218;SDS011;49320;52.512;13.448;2023-04-24T09:24:21;0.68;;;0.60;;
63218;SDS011;49320;52.512;13.448;2023-04-24T09:26:49;2.50;;;0.90;;
63218;SDS011;49320;52.512;13.448;2023-04-24T09:29:27;1.52;;;0.60;;
63218;SDS011;49320;52.512;13.448;2023-04-24T09:31:54;2.65;;;0.80;;
63218;SDS011;49320;52.512;13.448;2023-04-24T09:34:22;2.70;;;1.08;;
63218;SDS011;49320;52.512;13.448;2023-04-24T09:36:53;1.52;;;0.80;;
63218;SDS011;49320;52.512;13.448;2023-04-24T09:39:20;1.20;;;0.80;;
63218;SDS011;49320;52.512;13.448;2023-04-24T09:41:54;0.80;;;0.80;;
63218;SDS011;49320;52.512;13.448;2023-04-24T09:44:27;1.08;;;0.77;;
63218;SDS011;49320;52.512;13.448;2023-04-24T09:46:55;1.20;;;0.63;;
63218;SDS011;49320;52.512;13.448;2023-04-24T09:49:25;1.48;;;0.95;;
63218;SDS011;49320;52.512;13.448;2023-04-24T09:52:04;1.00;;;0.70;;
63218;SDS011;49320;52.512;13.448;2023-04-24T09:54:35;2.72;;;0.90;;
63218;SDS011;49320;52.512;13.448;2023-04-24T09:57:03;1.08;;;0.90;;
63218;SDS011;49320;52.512;13.448;2023-04-24T09:59:30;1.55;;;0.65;;
63218;SDS011;49320;52.512;13.448;2023-04-24T10:01:59;2.03;;;0.85;;
63218;SDS011;49320;52.512;13.448;2023-04-24T10:04:28;1.83;;;0.70;;
63218;SDS011;49320;52.512;13.448;2023-04-24T10:06:56;2.25;;;0.77;;
63218;SDS011;49320;52.512;13.448;2023-04-24T10:09:24;2.92;;;0.93;;
63218;SDS011;49320;52.512;13.448;2023-04-24T10:11:53;1.55;;;0.88;;
63218;SDS011;49320;52.512;13.448;2023-04-24T10:14:21;0.90;;;0.65;;
63218;SDS011;49320;52.512;13.448;2023-04-24T10:16:53;1.25;;;0.80;;
63218;SDS011;49320;52.512;13.448;2023-04-24T10:19:21;2.33;;;0.70;;
63218;SDS011;49320;52.512;13.448;2023-04-24T10:21:51;1.30;;;0.73;;
63218;SDS011;49320;52.512;13.448;2023-04-24T10:24:20;0.82;;;0.70;;
63218;SDS011;49320;52.512;13.448;2023-04-24T10:26:48;1.48;;;0.80;;
63218;SDS011;49320;52.512;13.448;2023-04-24T10:29:17;1.23;;;0.70;;
63218;SDS011;49320;52.512;13.448;2023-04-24T10:31:45;1.17;;;0.73;;
63218;SDS011;49320;52.512;13.448;2023-04-24T10:34:14;2.58;;;0.93;;
63218;SDS011;49320;52.512;13.448;2023-04-24T10:36:48;1.13;;;0.80;;
63218;SDS011;49320;52.512;13.448;2023-04-24T10:39:23;1.65;;;1.30;;
63218;SDS011;49320;52.512;13.448;2023-04-24T10:41:54;1.98;;;0.90;;
63218;SDS011;49320;52.512;13.448;2023-04-24T10:44:24;3.35;;;1.00;;
63218;SDS011;49320;52.512;13.448;2023-04-24T10:46:54;0.80;;;0.65;;
63218;SDS011;49320;52.512;13.448;2023-04-24T10:49:29;0.95;;;0.70;;
63218;SDS011;49320;52.512;13.448;2023-04-24T10:52:01;1.10;;;0.80;;
63218;SDS011;49320;52.512;13.448;2023-04-24T10:54:44;1.13;;;0.52;;
63218;SDS011;49320;52.512;13.448;2023-04-24T10:59:46;1.63;;;0.80;;
63218;SDS011;49320;52.512;13.448;2023-04-24T11:02:14;2.00;;;0.70;;
63218;SDS011;49320;52.512;13.448;2023-04-24T11:04:42;1.45;;;0.88;;
63218;SDS011;49320;52.512;13.448;2023-04-24T11:07:10;0.95;;;0.80;;
63218;SDS011;49320;52.512;13.448;2023-04-24T11:09:38;0.98;;;0.70;;
63218;SDS011;49320;52.512;13.448;2023-04-24T11:12:08;1.45;;;0.60;;
63218;SDS011;49320;52.512;13.448;2023-04-24T11:17:32;1.33;;;0.80;;
63218;SDS011;49320;52.512;13.448;2023-04-24T11:22:53;1.20;;;0.52;;
63218;SDS011;49320;52.512;13.448;2023-04-24T11:25:21;1.38;;;0.80;;
63218;SDS011;49320;52.512;13.448;2023-04-24T11:27:49;1.77;;;1.50;;
63218;SDS011;49320;52.512;13.448;2023-04-24T11:30:17;1.38;;;0.77;;
63218;SDS011;49320;52.512;13.448;2023-04-24T11:32:52;1.30;;;0.80;;
63218;SDS011;49320;52.512;13.448;2023-04-24T11:35:20;3.33;;;0.90;;
63218;SDS011;49320;52.512;13.448;2023-04-24T11:37:51;0.93;;;0.85;;
63218;SDS011;49320;52.512;13.448;2023-04-24T11:40:23;3.38;;;1.10;;
63218;SDS011;49320;52.512;13.448;2023-04-24T11:42:52;4.05;;;0.88;;
63218;SDS011;49320;52.512;13.448;2023-04-24T11:45:23;2.10;;;1.00;;
63218;SDS011;49320;52.512;13.448;2023-04-24T11:50:25;3.40;;;1.42;;
63218;SDS011;49320;52.512;13.448;2023-04-24T11:52:54;0.80;;;0.80;;
63218;SDS011;49320;52.512;13.448;2023-04-24T11:57:50;0.98;;;0.70;;
63218;SDS011;49320;52.512;13.448;2023-04-24T12:00:26;1.27;;;0.60;;
63218;SDS011;49320;52.512;13.448;2023-04-24T12:03:09;1.42;;;0.73;;
63218;SDS011;49320;52.512;13.448;2023-04-24T12:05:38;0.95;;;0.70;;
63218;SDS011;49320;52.512;13.448;2023-04-24T12:08:06;1.27;;;0.60;;
63218;SDS011;49320;52.512;13.448;2023-04-24T12:10:33;1.10;;;0.85;;
63218;SDS011;49320;52.512;13.448;2023-04-24T12:13:02;1.33;;;0.98;;
63218;SDS011;49320;52.512;13.448;2023-04-24T12:15:29;1.35;;;1.00;;
63218;SDS011;49320;52.512;13.448;2023-04-24T12:17:56;1.45;;;0.98;;
63218;SDS011;49320;52.512;13.448;2023-04-24T12:20:24;0.93;;;0.70;;
63218;SDS011;49320;52.512;13.448;2023-04-24T12:22:58;2.47;;;1.13;;
63218;SDS011;49320;52.512;13.448;2023-04-24T12:25:30;1.30;;;1.10;;
63218;SDS011;49320;52.512;13.448;2023-04-24T12:30:33;2.30;;;1.08;;
63218;SDS011;49320;52.512;13.448;2023-04-24T12:35:33;1.83;;;1.00;;
63218;SDS011;49320;52.512;13.448;2023-04-24T12:38:08;1.52;;;0.75;;
63218;SDS011;49320;52.512;13.448;2023-04-24T12:40:39;1.80;;;1.20;;
63218;SDS011;49320;52.512;13.448;2023-04-24T12:43:14;0.80;;;0.80;;
63218;SDS011;49320;52.512;13.448;2023-04-24T12:45:47;1.60;;;1.05;;
63218;SDS011;49320;52.512;13.448;2023-04-24T12:48:14;1.48;;;0.80;;
63218;SDS011;49320;52.512;13.448;2023-04-24T12:50:41;1.70;;;0.85;;
63218;SDS011;49320;52.512;13.448;2023-04-24T12:53:12;1.20;;;0.82;;
63218;SDS011;49320;52.512;13.448;2023-04-24T12:55:40;1.08;;;0.63;;
63218;SDS011;49320;52.512;13.448;2023-04-24T12:58:06;2.00;;;0.80;;
63218;SDS011;49320;52.512;13.448;2023-04-24T13:00:33;1.45;;;0.77;;
63218;SDS011;49320;52.512;13.448;2023-04-24T13:03:01;1.13;;;0.82;;
63218;SDS011;49320;52.512;13.448;2023-04-24T13:05:29;1.50;;;1.00;;
63218;SDS011;49320;52.512;13.448;2023-04-24T13:07:56;0.88;;;0.65;;
63218;SDS011;49320;52.512;13.448;2023-04-24T13:10:23;1.17;;;0.90;;
63218;SDS011;49320;52.512;13.448;2023-04-24T13:12:50;1.08;;;0.65;;
63218;SDS011;49320;52.512;13.448;2023-04-24T13:15:17;0.57;;;0.50;;
63218;SDS011;49320;52.512;13.448;2023-04-24T13:17:44;1.05;;;0.55;;
63218;SDS011;49320;52.512;13.448;2023-04-24T13:20:11;0.68;;;0.68;;
63218;SDS011;49320;52.512;13.448;2023-04-24T13:22:38;2.33;;;1.00;;
63218;SDS011;49320;52.512;13.448;2023-04-24T13:25:05;0.55;;;0.55;;
63218;SDS011;49320;52.512;13.448;2023-04-24T13:27:33;1.63;;;0.90;;
63218;SDS011;49320;52.512;13.448;2023-04-24T13:29:59;1.98;;;0.80;;
63218;SDS011;49320;52.512;13.448;2023-04-24T13:32:27;3.55;;;0.82;;
63218;SDS011;49320;52.512;13.448;2023-04-24T13:34:55;0.70;;;0.70;;
63218;SDS011;49320;52.512;13.448;2023-04-24T13:37:23;2.08;;;0.90;;
63218;SDS011;49320;52.512;13.448;2023-04-24T13:39:50;1.13;;;0.80;;
63218;SDS011;49320;52.512;13.448;2023-04-24T13:42:17;0.65;;;0.65;;
63218;SDS011;49320;52.512;13.448;2023-04-24T13:44:45;0.77;;;0.70;;
63218;SDS011;49320;52.512;13.448;2023-04-24T13:47:11;1.17;;;0.70;;
63218;SDS011;49320;52.512;13.448;2023-04-24T13:49:38;1.10;;;0.50;;
63218;SDS011;49320;52.512;13.448;2023-04-24T13:52:06;2.63;;;0.63;;
63218;SDS011;49320;52.512;13.448;2023-04-24T13:54:33;1.05;;;0.90;;
63218;SDS011;49320;52.512;13.448;2023-04-24T13:57:01;0.65;;;0.60;;
63218;SDS011;49320;52.512;13.448;2023-04-24T13:59:29;2.05;;;0.80;;
63218;SDS011;49320;52.512;13.448;2023-04-24T14:01:56;0.80;;;0.80;;
63218;SDS011;49320;52.512;13.448;2023-04-24T14:04:23;1.05;;;0.45;;
63218;SDS011;49320;52.512;13.448;2023-04-24T14:06:52;1.35;;;0.70;;
63218;SDS011;49320;52.512;13.448;2023-04-24T14:09:19;0.93;;;0.80;;
63218;SDS011;49320;52.512;13.448;2023-04-24T14:11:46;0.95;;;0.60;;
63218;SDS011;49320;52.512;13.448;2023-04-24T14:14:13;1.00;;;0.80;;
63218;SDS011;49320;52.512;13.448;2023-04-24T14:16:39;0.60;;;0.60;;
63218;SDS011;49320;52.512;13.448;2023-04-24T14:19:06;2.35;;;0.88;;
63218;SDS011;49320;52.512;13.448;2023-04-24T14:21:33;1.30;;;0.90;;
63218;SDS011;49320;52.512;13.448;2023-04-24T14:24:00;2.00;;;0.85;;
63218;SDS011;49320;52.512;13.448;2023-04-24T14:26:27;0.80;;;0.77;;
63218;SDS011;49320;52.512;13.448;2023-04-24T14:28:54;1.38;;;1.20;;
63218;SDS011;49320;52.512;13.448;2023-04-24T14:31:39;3.58;;;1.38;;
63218;SDS011;49320;52.512;13.448;2023-04-24T14:34:06;1.58;;;0.85;;
63218;SDS011;49320;52.512;13.448;2023-04-24T14:36:32;1.40;;;0.80;;
63218;SDS011;49320;52.512;13.448;2023-04-24T14:38:59;1.02;;;0.90;;
63218;SDS011;49320;52.512;13.448;2023-04-24T14:41:29;1.08;;;0.80;;
63218;SDS011;49320;52.512;13.448;2023-04-24T14:43:56;1.90;;;0.88;;
63218;SDS011;49320;52.512;13.448;2023-04-24T14:46:23;1.60;;;0.80;;
63218;SDS011;49320;52.512;13.448;2023-04-24T14:48:50;3.30;;;0.90;;
63218;SDS011;49320;52.512;13.448;2023-04-24T14:51:17;13.00;;;1.35;;
63218;SDS011;49320;52.512;13.448;2023-04-24T14:53:43;1.27;;;1.05;;
63218;SDS011;49320;52.512;13.448;2023-04-24T14:56:13;3.13;;;0.93;;
63218;SDS011;49320;52.512;13.448;2023-04-24T14:58:41;0.82;;;0.73;;
63218;SDS011;49320;52.512;13.448;2023-04-24T15:01:08;1.90;;;0.73;;
63218;SDS011;49320;52.512;13.448;2023-04-24T15:03:35;5.45;;;0.80;;